sensor_id;sensor_type;location;lat;lon;timestamp;P1;durP1;ratioP1;P2;durP2;ratioP2
209;SDS011;90;48.810;9.120;2023-12-20T00:01:27;3.17;;;2.80;;
209;SDS011;90;48.810;9.120;2023-12-20T00:03:54;3.10;;;2.93;;
209;SDS011;90;48.810;9.120;2023-12-20T00:06:21;3.07;;;2.87;;
209;SDS011;90;48.810;9.120;2023-12-20T00:08:49;3.00;;;2.80;;
209;SDS011;90;48.810;9.120;2023-12-20T00:11:17;2.87;;;2.67;;
209;SDS011;90;48.810;9.120;2023-12-20T00:13:44;3.00;;;2.80;;
209;SDS011;90;48.810;9.120;2023-12-20T00:16:11;3.07;;;2.87;;
209;SDS011;90;48.810;9.120;2023-12-20T00:18:38;2.80;;;2.60;;
209;SDS011;90;48.810;9.120;2023-12-20T00:21:05;3.90;;;3.07;;
209;SDS011;90;48.810;9.120;2023-12-20T00:23:32;2.60;;;2.43;;
209;SDS011;90;48.810;9.120;2023-12-20T00:25:59;2.90;;;2.70;;
209;SDS011;90;48.810;9.120;2023-12-20T00:28:28;2.83;;;2.63;;
209;SDS011;90;48.810;9.120;2023-12-20T00:30:55;2.50;;;2.30;;
209;SDS011;90;48.810;9.120;2023-12-20T00:33:22;3.20;;;3.00;;
209;SDS011;90;48.810;9.120;2023-12-20T00:35:49;2.93;;;2.67;;
209;SDS011;90;48.810;9.120;2023-12-20T00:38:15;3.30;;;3.10;;
209;SDS011;90;48.810;9.120;2023-12-20T00:40:42;2.87;;;2.67;;
209;SDS011;90;48.810;9.120;2023-12-20T00:43:09;2.80;;;2.60;;
209;SDS011;90;48.810;9.120;2023-12-20T00:45:37;3.20;;;3.00;;
209;SDS011;90;48.810;9.120;2023-12-20T00:48:04;3.00;;;2.80;;
209;SDS011;90;48.810;9.120;2023-12-20T00:50:32;3.20;;;3.00;;
209;SDS011;90;48.810;9.120;2023-12-20T00:52:58;2.90;;;2.70;;
209;SDS011;90;48.810;9.120;2023-12-20T00:55:25;3.07;;;2.57;;
209;SDS011;90;48.810;9.120;2023-12-20T00:57:52;2.47;;;2.27;;
209;SDS011;90;48.810;9.120;2023-12-20T01:00:19;3.23;;;3.10;;
209;SDS011;90;48.810;9.120;2023-12-20T01:02:47;3.30;;;3.10;;
209;SDS011;90;48.810;9.120;2023-12-20T01:05:16;2.80;;;2.60;;
209;SDS011;90;48.810;9.120;2023-12-20T01:07:44;3.20;;;3.00;;
209;SDS011;90;48.810;9.120;2023-12-20T01:10:11;2.70;;;2.50;;
209;SDS011;90;48.810;9.120;2023-12-20T01:12:38;7.90;;;2.90;;
209;SDS011;90;48.810;9.120;2023-12-20T01:15:06;3.80;;;2.57;;
209;SDS011;90;48.810;9.120;2023-12-20T01:17:34;2.50;;;2.30;;
209;SDS011;90;48.810;9.120;2023-12-20T01:20:02;3.97;;;2.80;;
209;SDS011;90;48.810;9.120;2023-12-20T01:22:29;3.70;;;3.03;;
209;SDS011;90;48.810;9.120;2023-12-20T01:24:56;2.70;;;2.50;;
209;SDS011;90;48.810;9.120;2023-12-20T01:27:23;3.13;;;2.93;;
209;SDS011;90;48.810;9.120;2023-12-20T01:29:50;4.03;;;2.87;;
209;SDS011;90;48.810;9.120;2023-12-20T01:32:17;3.60;;;3.40;;
209;SDS011;90;48.810;9.120;2023-12-20T01:34:44;4.00;;;2.93;;
209;SDS011;90;48.810;9.120;2023-12-20T01:37:12;4.23;;;3.40;;
209;SDS011;90;48.810;9.120;2023-12-20T01:39:39;3.15;;;2.95;;
209;SDS011;90;48.810;9.120;2023-12-20T01:42:06;3.53;;;3.33;;
209;SDS011;90;48.810;9.120;2023-12-20T01:44:33;3.67;;;3.50;;
209;SDS011;90;48.810;9.120;2023-12-20T01:47:00;4.07;;;2.80;;
209;SDS011;90;48.810;9.120;2023-12-20T01:49:27;3.43;;;3.23;;
209;SDS011;90;48.810;9.120;2023-12-20T01:51:54;3.57;;;3.10;;
209;SDS011;90;48.810;9.120;2023-12-20T01:54:23;3.37;;;3.10;;
209;SDS011;90;48.810;9.120;2023-12-20T01:56:51;3.30;;;3.10;;
209;SDS011;90;48.810;9.120;2023-12-20T01:59:18;3.63;;;3.20;;
209;SDS011;90;48.810;9.120;2023-12-20T02:01:46;2.80;;;2.60;;
209;SDS011;90;48.810;9.120;2023-12-20T02:04:13;3.30;;;3.10;;
209;SDS011;90;48.810;9.120;2023-12-20T02:06:41;2.87;;;2.67;;
209;SDS011;90;48.810;9.120;2023-12-20T02:09:09;4.30;;;3.40;;
209;SDS011;90;48.810;9.120;2023-12-20T02:11:38;3.20;;;3.00;;
209;SDS011;90;48.810;9.120;2023-12-20T02:14:05;3.67;;;3.13;;
209;SDS011;90;48.810;9.120;2023-12-20T02:16:31;3.30;;;3.10;;
209;SDS011;90;48.810;9.120;2023-12-20T02:18:58;3.20;;;3.00;;
209;SDS011;90;48.810;9.120;2023-12-20T02:21:31;2.90;;;2.70;;
209;SDS011;90;48.810;9.120;2023-12-20T02:23:58;3.10;;;2.90;;
209;SDS011;90;48.810;9.120;2023-12-20T02:26:25;3.63;;;3.47;;
209;SDS011;90;48.810;9.120;2023-12-20T02:28:53;3.73;;;3.53;;
209;SDS011;90;48.810;9.120;2023-12-20T02:31:20;3.83;;;3.63;;
209;SDS011;90;48.810;9.120;2023-12-20T02:33:48;3.90;;;3.70;;
209;SDS011;90;48.810;9.120;2023-12-20T02:36:14;4.73;;;4.00;;
209;SDS011;90;48.810;9.120;2023-12-20T02:38:42;4.23;;;3.93;;
209;SDS011;90;48.810;9.120;2023-12-20T02:41:09;4.73;;;4.43;;
209;SDS011;90;48.810;9.120;2023-12-20T02:43:36;5.43;;;4.87;;
209;SDS011;90;48.810;9.120;2023-12-20T02:46:03;5.93;;;5.17;;
209;SDS011;90;48.810;9.120;2023-12-20T02:48:30;5.20;;;4.90;;
209;SDS011;90;48.810;9.120;2023-12-20T02:50:57;4.40;;;4.10;;
209;SDS011;90;48.810;9.120;2023-12-20T02:53:24;6.97;;;3.70;;
209;SDS011;90;48.810;9.120;2023-12-20T02:55:52;2.73;;;2.60;;
209;SDS011;90;48.810;9.120;2023-12-20T02:58:19;2.35;;;2.20;;
209;SDS011;90;48.810;9.120;2023-12-20T03:00:45;1.90;;;1.52;;
209;SDS011;90;48.810;9.120;2023-12-20T03:03:12;1.80;;;1.77;;
209;SDS011;90;48.810;9.120;2023-12-20T03:05:39;1.63;;;1.30;;
209;SDS011;90;48.810;9.120;2023-12-20T03:08:06;1.70;;;1.30;;
209;SDS011;90;48.810;9.120;2023-12-20T03:10:33;1.65;;;1.38;;
209;SDS011;90;48.810;9.120;2023-12-20T03:13:01;1.65;;;1.10;;
209;SDS011;90;48.810;9.120;2023-12-20T03:15:28;1.50;;;1.10;;
209;SDS011;90;48.810;9.120;2023-12-20T03:17:55;1.50;;;1.00;;
209;SDS011;90;48.810;9.120;2023-12-20T03:20:24;1.60;;;1.30;;
209;SDS011;90;48.810;9.120;2023-12-20T03:22:51;1.90;;;1.20;;
209;SDS011;90;48.810;9.120;2023-12-20T03:25:18;1.80;;;1.30;;
209;SDS011;90;48.810;9.120;2023-12-20T03:27:45;2.33;;;1.20;;
209;SDS011;90;48.810;9.120;2023-12-20T03:30:14;1.90;;;1.30;;
209;SDS011;90;48.810;9.120;2023-12-20T03:32:41;1.70;;;1.20;;
209;SDS011;90;48.810;9.120;2023-12-20T03:35:08;1.60;;;1.20;;
209;SDS011;90;48.810;9.120;2023-12-20T03:37:35;1.90;;;1.30;;
209;SDS011;90;48.810;9.120;2023-12-20T03:40:02;1.50;;;1.15;;
209;SDS011;90;48.810;9.120;2023-12-20T03:42:30;1.60;;;1.10;;
209;SDS011;90;48.810;9.120;2023-12-20T03:44:57;1.50;;;1.20;;
209;SDS011;90;48.810;9.120;2023-12-20T03:47:25;1.50;;;1.17;;
209;SDS011;90;48.810;9.120;2023-12-20T03:49:52;1.50;;;1.20;;
209;SDS011;90;48.810;9.120;2023-12-20T03:52:19;1.60;;;1.27;;
209;SDS011;90;48.810;9.120;2023-12-20T03:54:46;1.60;;;1.20;;
209;SDS011;90;48.810;9.120;2023-12-20T03:57:13;1.90;;;1.40;;
209;SDS011;90;48.810;9.120;2023-12-20T03:59:40;1.50;;;1.13;;
209;SDS011;90;48.810;9.120;2023-12-20T04:02:07;1.60;;;1.30;;
209;SDS011;90;48.810;9.120;2023-12-20T04:04:36;1.60;;;1.30;;
209;SDS011;90;48.810;9.120;2023-12-20T04:07:03;1.50;;;1.17;;
209;SDS011;90;48.810;9.120;2023-12-20T04:09:29;1.60;;;1.23;;
209;SDS011;90;48.810;9.120;2023-12-20T04:11:56;1.58;;;1.30;;
209;SDS011;90;48.810;9.120;2023-12-20T04:14:23;1.60;;;1.20;;
209;SDS011;90;48.810;9.120;2023-12-20T04:16:50;1.50;;;1.10;;
209;SDS011;90;48.810;9.120;2023-12-20T04:19:17;1.50;;;1.17;;
209;SDS011;90;48.810;9.120;2023-12-20T04:21:45;1.55;;;1.20;;
209;SDS011;90;48.810;9.120;2023-12-20T04:24:12;1.92;;;1.30;;
209;SDS011;90;48.810;9.120;2023-12-20T04:26:39;1.50;;;1.10;;
209;SDS011;90;48.810;9.120;2023-12-20T04:29:07;1.60;;;1.30;;
209;SDS011;90;48.810;9.120;2023-12-20T04:31:34;1.80;;;1.40;;
209;SDS011;90;48.810;9.120;2023-12-20T04:34:01;2.78;;;1.38;;
209;SDS011;90;48.810;9.120;2023-12-20T04:36:28;2.45;;;1.02;;
209;SDS011;90;48.810;9.120;2023-12-20T04:38:57;1.60;;;1.13;;
209;SDS011;90;48.810;9.120;2023-12-20T04:41:24;2.33;;;1.20;;
209;SDS011;90;48.810;9.120;2023-12-20T04:43:52;1.60;;;1.10;;
209;SDS011;90;48.810;9.120;2023-12-20T04:46:19;1.60;;;1.20;;
209;SDS011;90;48.810;9.120;2023-12-20T04:48:46;1.60;;;1.20;;
209;SDS011;90;48.810;9.120;2023-12-20T04:51:13;1.50;;;1.10;;
209;SDS011;90;48.810;9.120;2023-12-20T04:53:40;1.60;;;1.02;;
209;SDS011;90;48.810;9.120;2023-12-20T04:56:10;2.78;;;1.10;;
209;SDS011;90;48.810;9.120;2023-12-20T04:58:37;1.50;;;1.20;;
209;SDS011;90;48.810;9.120;2023-12-20T05:01:04;1.60;;;1.10;;
209;SDS011;90;48.810;9.120;2023-12-20T05:03:32;1.50;;;1.20;;
209;SDS011;90;48.810;9.120;2023-12-20T05:05:59;1.60;;;1.10;;
209;SDS011;90;48.810;9.120;2023-12-20T05:08:26;1.50;;;1.20;;
209;SDS011;90;48.810;9.120;2023-12-20T05:10:53;1.60;;;1.20;;
209;SDS011;90;48.810;9.120;2023-12-20T05:13:22;1.60;;;1.13;;
209;SDS011;90;48.810;9.120;2023-12-20T05:15:52;1.55;;;1.20;;
209;SDS011;90;48.810;9.120;2023-12-20T05:18:19;1.50;;;1.30;;
209;SDS011;90;48.810;9.120;2023-12-20T05:20:46;2.00;;;1.40;;
209;SDS011;90;48.810;9.120;2023-12-20T05:23:14;1.60;;;1.20;;
209;SDS011;90;48.810;9.120;2023-12-20T05:25:43;1.70;;;1.40;;
209;SDS011;90;48.810;9.120;2023-12-20T05:28:10;1.50;;;1.00;;
209;SDS011;90;48.810;9.120;2023-12-20T05:30:39;1.80;;;1.50;;
209;SDS011;90;48.810;9.120;2023-12-20T05:33:05;1.60;;;1.40;;
209;SDS011;90;48.810;9.120;2023-12-20T05:35:32;1.75;;;1.60;;
209;SDS011;90;48.810;9.120;2023-12-20T05:37:59;1.70;;;1.55;;
209;SDS011;90;48.810;9.120;2023-12-20T05:40:26;1.70;;;1.40;;
209;SDS011;90;48.810;9.120;2023-12-20T05:42:53;2.75;;;1.48;;
209;SDS011;90;48.810;9.120;2023-12-20T05:45:20;1.60;;;1.30;;
209;SDS011;90;48.810;9.120;2023-12-20T05:47:51;1.67;;;1.50;;
209;SDS011;90;48.810;9.120;2023-12-20T05:50:21;1.88;;;1.48;;
209;SDS011;90;48.810;9.120;2023-12-20T05:52:50;1.67;;;1.50;;
209;SDS011;90;48.810;9.120;2023-12-20T05:55:17;2.80;;;1.55;;
209;SDS011;90;48.810;9.120;2023-12-20T05:57:44;1.60;;;1.50;;
209;SDS011;90;48.810;9.120;2023-12-20T06:00:12;2.10;;;1.80;;
209;SDS011;90;48.810;9.120;2023-12-20T06:02:40;1.70;;;1.60;;
209;SDS011;90;48.810;9.120;2023-12-20T06:05:09;1.83;;;1.77;;
209;SDS011;90;48.810;9.120;2023-12-20T06:07:35;2.25;;;2.05;;
209;SDS011;90;48.810;9.120;2023-12-20T06:10:03;1.60;;;1.40;;
209;SDS011;90;48.810;9.120;2023-12-20T06:12:31;1.90;;;1.80;;
209;SDS011;90;48.810;9.120;2023-12-20T06:15:00;1.70;;;1.60;;
209;SDS011;90;48.810;9.120;2023-12-20T06:17:30;1.80;;;1.75;;
209;SDS011;90;48.810;9.120;2023-12-20T06:19:57;2.05;;;1.75;;
209;SDS011;90;48.810;9.120;2023-12-20T06:22:26;1.70;;;1.70;;
209;SDS011;90;48.810;9.120;2023-12-20T06:24:53;2.25;;;2.05;;
209;SDS011;90;48.810;9.120;2023-12-20T06:27:20;2.17;;;1.80;;
209;SDS011;90;48.810;9.120;2023-12-20T06:29:46;1.77;;;1.70;;
209;SDS011;90;48.810;9.120;2023-12-20T06:32:13;2.27;;;1.90;;
209;SDS011;90;48.810;9.120;2023-12-20T06:34:40;2.20;;;2.00;;
209;SDS011;90;48.810;9.120;2023-12-20T06:37:07;2.15;;;2.05;;
209;SDS011;90;48.810;9.120;2023-12-20T06:39:36;2.15;;;1.98;;
209;SDS011;90;48.810;9.120;2023-12-20T06:42:03;2.40;;;2.20;;
209;SDS011;90;48.810;9.120;2023-12-20T06:44:30;2.25;;;2.05;;
209;SDS011;90;48.810;9.120;2023-12-20T06:46:57;2.30;;;2.15;;
209;SDS011;90;48.810;9.120;2023-12-20T06:49:24;2.63;;;2.45;;
209;SDS011;90;48.810;9.120;2023-12-20T06:51:51;2.97;;;2.30;;
209;SDS011;90;48.810;9.120;2023-12-20T06:54:18;3.20;;;2.40;;
209;SDS011;90;48.810;9.120;2023-12-20T06:56:46;5.20;;;2.30;;
209;SDS011;90;48.810;9.120;2023-12-20T06:59:13;2.88;;;2.70;;
209;SDS011;90;48.810;9.120;2023-12-20T07:01:40;3.38;;;3.17;;
209;SDS011;90;48.810;9.120;2023-12-20T07:04:09;4.50;;;2.88;;
209;SDS011;90;48.810;9.120;2023-12-20T07:06:36;3.90;;;3.70;;
209;SDS011;90;48.810;9.120;2023-12-20T07:09:03;4.30;;;4.00;;
209;SDS011;90;48.810;9.120;2023-12-20T07:11:30;5.43;;;5.20;;
209;SDS011;90;48.810;9.120;2023-12-20T07:13:58;9.65;;;6.10;;
209;SDS011;90;48.810;9.120;2023-12-20T07:16:26;5.78;;;5.45;;
209;SDS011;90;48.810;9.120;2023-12-20T07:18:57;6.03;;;5.60;;
209;SDS011;90;48.810;9.120;2023-12-20T07:21:24;5.50;;;5.20;;
209;SDS011;90;48.810;9.120;2023-12-20T07:23:52;7.97;;;5.90;;
209;SDS011;90;48.810;9.120;2023-12-20T07:26:19;5.47;;;5.10;;
209;SDS011;90;48.810;9.120;2023-12-20T07:28:46;4.85;;;4.57;;
209;SDS011;90;48.810;9.120;2023-12-20T07:31:14;3.97;;;3.78;;
209;SDS011;90;48.810;9.120;2023-12-20T07:33:42;5.35;;;4.47;;
209;SDS011;90;48.810;9.120;2023-12-20T07:36:08;5.03;;;4.72;;
209;SDS011;90;48.810;9.120;2023-12-20T07:38:36;4.35;;;4.10;;
209;SDS011;90;48.810;9.120;2023-12-20T07:41:03;5.55;;;5.25;;
209;SDS011;90;48.810;9.120;2023-12-20T07:43:30;5.10;;;4.80;;
209;SDS011;90;48.810;9.120;2023-12-20T07:45:57;4.78;;;4.47;;
209;SDS011;90;48.810;9.120;2023-12-20T07:48:31;6.85;;;5.18;;
209;SDS011;90;48.810;9.120;2023-12-20T07:50:57;5.20;;;4.90;;
209;SDS011;90;48.810;9.120;2023-12-20T07:53:24;6.03;;;5.70;;
209;SDS011;90;48.810;9.120;2023-12-20T07:55:52;7.28;;;5.65;;
209;SDS011;90;48.810;9.120;2023-12-20T07:58:22;5.00;;;4.68;;
209;SDS011;90;48.810;9.120;2023-12-20T08:00:49;5.78;;;5.47;;
209;SDS011;90;48.810;9.120;2023-12-20T08:03:16;5.70;;;5.40;;
209;SDS011;90;48.810;9.120;2023-12-20T08:05:45;5.95;;;5.65;;
209;SDS011;90;48.810;9.120;2023-12-20T08:08:12;6.82;;;5.05;;
209;SDS011;90;48.810;9.120;2023-12-20T08:10:38;5.28;;;5.03;;
209;SDS011;90;48.810;9.120;2023-12-20T08:13:05;7.32;;;5.50;;
209;SDS011;90;48.810;9.120;2023-12-20T08:15:33;7.78;;;5.80;;
209;SDS011;90;48.810;9.120;2023-12-20T08:18:00;7.00;;;5.07;;
209;SDS011;90;48.810;9.120;2023-12-20T08:20:28;5.45;;;5.03;;
209;SDS011;90;48.810;9.120;2023-12-20T08:22:56;6.00;;;4.85;;
209;SDS011;90;48.810;9.120;2023-12-20T08:25:23;13.23;;;4.80;;
209;SDS011;90;48.810;9.120;2023-12-20T08:27:50;6.28;;;5.10;;
209;SDS011;90;48.810;9.120;2023-12-20T08:30:17;5.07;;;4.78;;
209;SDS011;90;48.810;9.120;2023-12-20T08:32:46;4.80;;;4.50;;
209;SDS011;90;48.810;9.120;2023-12-20T08:35:13;6.25;;;5.10;;
209;SDS011;90;48.810;9.120;2023-12-20T08:37:40;7.57;;;5.30;;
209;SDS011;90;48.810;9.120;2023-12-20T08:40:11;6.30;;;5.20;;
209;SDS011;90;48.810;9.120;2023-12-20T08:42:38;5.22;;;4.95;;
209;SDS011;90;48.810;9.120;2023-12-20T08:45:06;6.80;;;4.75;;
209;SDS011;90;48.810;9.120;2023-12-20T08:47:33;5.70;;;5.30;;
209;SDS011;90;48.810;9.120;2023-12-20T08:50:00;5.45;;;5.15;;
209;SDS011;90;48.810;9.120;2023-12-20T08:52:27;5.10;;;4.80;;
209;SDS011;90;48.810;9.120;2023-12-20T08:54:54;4.95;;;4.65;;
209;SDS011;90;48.810;9.120;2023-12-20T08:57:22;6.07;;;5.57;;
209;SDS011;90;48.810;9.120;2023-12-20T08:59:50;6.00;;;5.47;;
209;SDS011;90;48.810;9.120;2023-12-20T09:02:17;7.28;;;5.80;;
209;SDS011;90;48.810;9.120;2023-12-20T09:04:44;6.47;;;5.38;;
209;SDS011;90;48.810;9.120;2023-12-20T09:07:20;7.68;;;6.03;;
209;SDS011;90;48.810;9.120;2023-12-20T09:09:48;7.53;;;5.85;;
209;SDS011;90;48.810;9.120;2023-12-20T09:12:15;8.65;;;6.85;;
209;SDS011;90;48.810;9.120;2023-12-20T09:14:45;6.90;;;5.70;;
209;SDS011;90;48.810;9.120;2023-12-20T09:17:11;7.70;;;6.10;;
209;SDS011;90;48.810;9.120;2023-12-20T09:19:39;5.38;;;5.07;;
209;SDS011;90;48.810;9.120;2023-12-20T09:22:06;4.78;;;4.47;;
209;SDS011;90;48.810;9.120;2023-12-20T09:24:33;4.40;;;4.10;;
209;SDS011;90;48.810;9.120;2023-12-20T09:26:59;7.20;;;4.88;;
209;SDS011;90;48.810;9.120;2023-12-20T09:29:26;7.50;;;4.25;;
209;SDS011;90;48.810;9.120;2023-12-20T09:31:58;4.93;;;4.18;;
209;SDS011;90;48.810;9.120;2023-12-20T09:34:25;7.95;;;3.20;;
209;SDS011;90;48.810;9.120;2023-12-20T09:36:52;3.72;;;3.53;;
209;SDS011;90;48.810;9.120;2023-12-20T09:39:19;4.40;;;3.45;;
209;SDS011;90;48.810;9.120;2023-12-20T09:41:49;3.20;;;3.00;;
209;SDS011;90;48.810;9.120;2023-12-20T09:44:26;5.75;;;3.35;;
209;SDS011;90;48.810;9.120;2023-12-20T09:46:53;5.30;;;3.50;;
209;SDS011;90;48.810;9.120;2023-12-20T09:49:23;11.68;;;3.08;;
209;SDS011;90;48.810;9.120;2023-12-20T09:51:56;4.85;;;2.80;;
209;SDS011;90;48.810;9.120;2023-12-20T09:54:24;5.65;;;3.00;;
209;SDS011;90;48.810;9.120;2023-12-20T09:56:53;4.95;;;3.17;;
209;SDS011;90;48.810;9.120;2023-12-20T09:59:20;5.00;;;3.20;;
209;SDS011;90;48.810;9.120;2023-12-20T10:01:47;4.15;;;3.40;;
209;SDS011;90;48.810;9.120;2023-12-20T10:04:15;3.28;;;2.92;;
209;SDS011;90;48.810;9.120;2023-12-20T10:06:43;6.55;;;3.70;;
209;SDS011;90;48.810;9.120;2023-12-20T10:09:11;6.80;;;3.40;;
209;SDS011;90;48.810;9.120;2023-12-20T10:11:38;6.18;;;4.25;;
209;SDS011;90;48.810;9.120;2023-12-20T10:14:06;8.43;;;3.80;;
209;SDS011;90;48.810;9.120;2023-12-20T10:16:33;5.38;;;3.22;;
209;SDS011;90;48.810;9.120;2023-12-20T10:19:00;4.05;;;3.00;;
209;SDS011;90;48.810;9.120;2023-12-20T10:21:27;5.28;;;2.95;;
209;SDS011;90;48.810;9.120;2023-12-20T10:23:56;7.13;;;2.80;;
209;SDS011;90;48.810;9.120;2023-12-20T10:26:23;8.27;;;3.13;;
209;SDS011;90;48.810;9.120;2023-12-20T10:28:52;8.80;;;3.20;;
209;SDS011;90;48.810;9.120;2023-12-20T10:31:27;4.00;;;3.20;;
209;SDS011;90;48.810;9.120;2023-12-20T10:33:56;5.68;;;3.80;;
209;SDS011;90;48.810;9.120;2023-12-20T10:36:24;4.35;;;3.92;;
209;SDS011;90;48.810;9.120;2023-12-20T10:38:52;3.53;;;3.30;;
209;SDS011;90;48.810;9.120;2023-12-20T10:41:21;4.45;;;3.47;;
209;SDS011;90;48.810;9.120;2023-12-20T10:43:51;5.63;;;3.63;;
209;SDS011;90;48.810;9.120;2023-12-20T10:46:18;4.35;;;3.08;;
209;SDS011;90;48.810;9.120;2023-12-20T10:48:46;5.15;;;3.72;;
209;SDS011;90;48.810;9.120;2023-12-20T10:51:14;6.65;;;3.63;;
209;SDS011;90;48.810;9.120;2023-12-20T10:53:44;5.95;;;3.78;;
209;SDS011;90;48.810;9.120;2023-12-20T10:56:14;4.25;;;3.40;;
209;SDS011;90;48.810;9.120;2023-12-20T10:58:45;5.68;;;3.17;;
209;SDS011;90;48.810;9.120;2023-12-20T11:01:12;7.22;;;3.30;;
209;SDS011;90;48.810;9.120;2023-12-20T11:03:43;7.10;;;3.60;;
209;SDS011;90;48.810;9.120;2023-12-20T11:06:16;3.60;;;3.40;;
209;SDS011;90;48.810;9.120;2023-12-20T11:08:52;4.37;;;3.30;;
209;SDS011;90;48.810;9.120;2023-12-20T11:11:35;4.25;;;4.00;;
209;SDS011;90;48.810;9.120;2023-12-20T11:14:13;6.35;;;3.10;;
209;SDS011;90;48.810;9.120;2023-12-20T11:16:44;15.27;;;5.10;;
209;SDS011;90;48.810;9.120;2023-12-20T11:19:12;19.25;;;8.15;;
209;SDS011;90;48.810;9.120;2023-12-20T11:21:39;5.72;;;3.15;;
209;SDS011;90;48.810;9.120;2023-12-20T11:24:06;13.35;;;3.60;;
209;SDS011;90;48.810;9.120;2023-12-20T11:26:33;10.02;;;3.53;;
209;SDS011;90;48.810;9.120;2023-12-20T11:32:00;9.10;;;3.28;;
209;SDS011;90;48.810;9.120;2023-12-20T11:34:27;3.85;;;3.17;;
209;SDS011;90;48.810;9.120;2023-12-20T11:36:57;4.47;;;3.20;;
209;SDS011;90;48.810;9.120;2023-12-20T11:39:25;9.60;;;3.70;;
209;SDS011;90;48.810;9.120;2023-12-20T11:41:53;8.30;;;3.60;;
209;SDS011;90;48.810;9.120;2023-12-20T11:44:21;14.20;;;3.72;;
209;SDS011;90;48.810;9.120;2023-12-20T11:46:49;3.70;;;3.50;;
209;SDS011;90;48.810;9.120;2023-12-20T11:49:16;8.63;;;3.60;;
209;SDS011;90;48.810;9.120;2023-12-20T11:51:43;8.15;;;3.45;;
209;SDS011;90;48.810;9.120;2023-12-20T11:54:10;7.65;;;3.75;;
209;SDS011;90;48.810;9.120;2023-12-20T11:56:37;4.10;;;3.30;;
209;SDS011;90;48.810;9.120;2023-12-20T11:59:04;12.88;;;3.63;;
209;SDS011;90;48.810;9.120;2023-12-20T12:01:31;3.38;;;3.17;;
209;SDS011;90;48.810;9.120;2023-12-20T12:04:06;6.20;;;3.92;;
209;SDS011;90;48.810;9.120;2023-12-20T12:06:33;5.38;;;3.50;;
209;SDS011;90;48.810;9.120;2023-12-20T12:09:00;5.93;;;3.77;;
209;SDS011;90;48.810;9.120;2023-12-20T12:11:29;4.30;;;3.50;;
209;SDS011;90;48.810;9.120;2023-12-20T12:13:56;6.10;;;3.50;;
209;SDS011;90;48.810;9.120;2023-12-20T12:16:22;4.22;;;3.58;;
209;SDS011;90;48.810;9.120;2023-12-20T12:18:54;8.63;;;3.35;;
209;SDS011;90;48.810;9.120;2023-12-20T12:21:23;4.18;;;3.72;;
209;SDS011;90;48.810;9.120;2023-12-20T12:23:50;10.25;;;4.10;;
209;SDS011;90;48.810;9.120;2023-12-20T12:26:18;3.97;;;3.43;;
209;SDS011;90;48.810;9.120;2023-12-20T12:28:45;8.93;;;4.07;;
209;SDS011;90;48.810;9.120;2023-12-20T12:31:15;6.10;;;3.13;;
209;SDS011;90;48.810;9.120;2023-12-20T12:33:41;4.90;;;3.30;;
209;SDS011;90;48.810;9.120;2023-12-20T12:36:08;7.50;;;3.53;;
209;SDS011;90;48.810;9.120;2023-12-20T12:38:37;10.47;;;3.70;;
209;SDS011;90;48.810;9.120;2023-12-20T12:41:04;3.47;;;3.10;;
209;SDS011;90;48.810;9.120;2023-12-20T12:43:32;6.73;;;3.00;;
209;SDS011;90;48.810;9.120;2023-12-20T12:45:59;3.40;;;3.00;;
209;SDS011;90;48.810;9.120;2023-12-20T12:48:26;7.17;;;3.50;;
209;SDS011;90;48.810;9.120;2023-12-20T12:50:53;5.93;;;3.60;;
209;SDS011;90;48.810;9.120;2023-12-20T12:53:24;3.50;;;2.90;;
209;SDS011;90;48.810;9.120;2023-12-20T12:55:52;5.10;;;3.47;;
209;SDS011;90;48.810;9.120;2023-12-20T12:58:19;5.10;;;3.40;;
209;SDS011;90;48.810;9.120;2023-12-20T13:00:47;3.83;;;3.20;;
209;SDS011;90;48.810;9.120;2023-12-20T13:03:13;6.88;;;3.15;;
209;SDS011;90;48.810;9.120;2023-12-20T13:05:40;4.20;;;2.80;;
209;SDS011;90;48.810;9.120;2023-12-20T13:08:08;13.93;;;3.10;;
209;SDS011;90;48.810;9.120;2023-12-20T13:10:36;4.50;;;3.30;;
209;SDS011;90;48.810;9.120;2023-12-20T13:13:05;8.07;;;3.10;;
209;SDS011;90;48.810;9.120;2023-12-20T13:15:31;4.80;;;2.75;;
209;SDS011;90;48.810;9.120;2023-12-20T13:17:58;4.07;;;2.75;;
209;SDS011;90;48.810;9.120;2023-12-20T13:20:25;5.63;;;2.80;;
209;SDS011;90;48.810;9.120;2023-12-20T13:22:52;8.40;;;3.03;;
209;SDS011;90;48.810;9.120;2023-12-20T13:25:19;6.53;;;3.70;;
209;SDS011;90;48.810;9.120;2023-12-20T13:27:46;7.17;;;2.57;;
209;SDS011;90;48.810;9.120;2023-12-20T13:30:14;5.63;;;2.72;;
209;SDS011;90;48.810;9.120;2023-12-20T13:32:42;3.47;;;2.67;;
209;SDS011;90;48.810;9.120;2023-12-20T13:35:12;4.50;;;2.42;;
209;SDS011;90;48.810;9.120;2023-12-20T13:37:39;3.90;;;3.00;;
209;SDS011;90;48.810;9.120;2023-12-20T13:40:06;3.40;;;2.13;;
209;SDS011;90;48.810;9.120;2023-12-20T13:42:34;6.63;;;2.70;;
209;SDS011;90;48.810;9.120;2023-12-20T13:45:00;3.00;;;2.67;;
209;SDS011;90;48.810;9.120;2023-12-20T13:47:31;4.93;;;2.80;;
209;SDS011;90;48.810;9.120;2023-12-20T13:49:58;8.13;;;2.78;;
209;SDS011;90;48.810;9.120;2023-12-20T13:52:25;6.10;;;3.03;;
209;SDS011;90;48.810;9.120;2023-12-20T13:54:52;5.40;;;3.37;;
209;SDS011;90;48.810;9.120;2023-12-20T13:57:18;6.33;;;3.20;;
209;SDS011;90;48.810;9.120;2023-12-20T13:59:45;3.30;;;2.80;;
209;SDS011;90;48.810;9.120;2023-12-20T14:02:12;4.68;;;3.10;;
209;SDS011;90;48.810;9.120;2023-12-20T14:04:40;5.32;;;2.88;;
209;SDS011;90;48.810;9.120;2023-12-20T14:07:07;5.87;;;3.00;;
209;SDS011;90;48.810;9.120;2023-12-20T14:09:35;3.55;;;3.10;;
209;SDS011;90;48.810;9.120;2023-12-20T14:12:02;3.30;;;3.10;;
209;SDS011;90;48.810;9.120;2023-12-20T14:14:29;5.00;;;3.00;;
209;SDS011;90;48.810;9.120;2023-12-20T14:16:55;2.92;;;2.78;;
209;SDS011;90;48.810;9.120;2023-12-20T14:19:22;6.47;;;2.87;;
209;SDS011;90;48.810;9.120;2023-12-20T14:21:50;4.50;;;3.05;;
209;SDS011;90;48.810;9.120;2023-12-20T14:24:17;4.15;;;3.13;;
209;SDS011;90;48.810;9.120;2023-12-20T14:26:44;6.13;;;2.90;;
209;SDS011;90;48.810;9.120;2023-12-20T14:29:10;4.63;;;3.23;;
209;SDS011;90;48.810;9.120;2023-12-20T14:31:37;5.13;;;3.27;;
209;SDS011;90;48.810;9.120;2023-12-20T14:34:05;5.20;;;3.17;;
209;SDS011;90;48.810;9.120;2023-12-20T14:36:33;5.50;;;2.90;;
209;SDS011;90;48.810;9.120;2023-12-20T14:39:02;5.40;;;2.83;;
209;SDS011;90;48.810;9.120;2023-12-20T14:41:29;5.80;;;2.90;;
209;SDS011;90;48.810;9.120;2023-12-20T14:43:56;8.38;;;3.17;;
209;SDS011;90;48.810;9.120;2023-12-20T14:46:24;4.32;;;3.25;;
209;SDS011;90;48.810;9.120;2023-12-20T14:48:51;3.50;;;3.03;;
209;SDS011;90;48.810;9.120;2023-12-20T14:51:18;5.73;;;3.80;;
209;SDS011;90;48.810;9.120;2023-12-20T14:53:45;5.80;;;3.07;;
209;SDS011;90;48.810;9.120;2023-12-20T14:56:13;5.63;;;3.30;;
209;SDS011;90;48.810;9.120;2023-12-20T14:58:41;6.63;;;2.80;;
209;SDS011;90;48.810;9.120;2023-12-20T15:01:08;5.60;;;3.10;;
209;SDS011;90;48.810;9.120;2023-12-20T15:03:34;6.10;;;3.00;;
209;SDS011;90;48.810;9.120;2023-12-20T15:06:01;3.13;;;2.93;;
209;SDS011;90;48.810;9.120;2023-12-20T15:08:28;5.00;;;3.03;;
209;SDS011;90;48.810;9.120;2023-12-20T15:10:55;3.33;;;2.60;;
209;SDS011;90;48.810;9.120;2023-12-20T15:13:23;4.87;;;2.80;;
209;SDS011;90;48.810;9.120;2023-12-20T15:15:50;3.70;;;2.63;;
209;SDS011;90;48.810;9.120;2023-12-20T15:18:17;7.17;;;3.37;;
209;SDS011;90;48.810;9.120;2023-12-20T15:20:44;4.17;;;2.83;;
209;SDS011;90;48.810;9.120;2023-12-20T15:23:12;3.73;;;2.60;;
209;SDS011;90;48.810;9.120;2023-12-20T15:25:40;7.73;;;2.90;;
209;SDS011;90;48.810;9.120;2023-12-20T15:28:06;5.40;;;2.90;;
209;SDS011;90;48.810;9.120;2023-12-20T15:30:34;3.15;;;2.80;;
209;SDS011;90;48.810;9.120;2023-12-20T15:33:01;4.00;;;2.60;;
209;SDS011;90;48.810;9.120;2023-12-20T15:35:29;4.97;;;3.23;;
209;SDS011;90;48.810;9.120;2023-12-20T15:37:56;5.63;;;3.35;;
209;SDS011;90;48.810;9.120;2023-12-20T15:40:23;6.10;;;3.03;;
209;SDS011;90;48.810;9.120;2023-12-20T15:42:50;4.13;;;2.30;;
209;SDS011;90;48.810;9.120;2023-12-20T15:45:18;3.20;;;2.63;;
209;SDS011;90;48.810;9.120;2023-12-20T15:47:46;3.57;;;2.63;;
209;SDS011;90;48.810;9.120;2023-12-20T15:50:13;7.30;;;3.00;;
209;SDS011;90;48.810;9.120;2023-12-20T15:52:39;4.83;;;3.20;;
209;SDS011;90;48.810;9.120;2023-12-20T15:55:08;3.80;;;3.20;;
209;SDS011;90;48.810;9.120;2023-12-20T15:57:34;3.10;;;2.90;;
209;SDS011;90;48.810;9.120;2023-12-20T16:00:02;3.23;;;2.83;;
209;SDS011;90;48.810;9.120;2023-12-20T16:02:32;5.47;;;3.03;;
209;SDS011;90;48.810;9.120;2023-12-20T16:05:01;3.90;;;2.83;;